sensor_id;sensor_type;location;lat;lon;timestamp;P1;durP1;ratioP1;P2;durP2;ratioP2
11058;SDS011;5582;59.272;15.220;2022-08-04T00:01:50;12.03;;;4.30;;
11058;SDS011;5582;59.272;15.220;2022-08-04T00:04:54;9.07;;;3.77;;
11058;SDS011;5582;59.272;15.220;2022-08-04T00:07:40;9.97;;;3.40;;
11058;SDS011;5582;59.272;15.220;2022-08-04T00:10:16;10.97;;;3.90;;
11058;SDS011;5582;59.272;15.220;2022-08-04T00:12:46;14.53;;;3.87;;
11058;SDS011;5582;59.272;15.220;2022-08-04T00:15:15;9.40;;;3.60;;
11058;SDS011;5582;59.272;15.220;2022-08-04T00:17:48;4.83;;;2.97;;
11058;SDS011;5582;59.272;15.220;2022-08-04T00:20:19;8.97;;;3.50;;
11058;SDS011;5582;59.272;15.220;2022-08-04T00:22:47;13.70;;;3.37;;
11058;SDS011;5582;59.272;15.220;2022-08-04T00:25:13;8.13;;;3.00;;
11058;SDS011;5582;59.272;15.220;2022-08-04T00:27:39;11.60;;;2.80;;
11058;SDS011;5582;59.272;15.220;2022-08-04T00:30:05;6.80;;;3.00;;
11058;SDS011;5582;59.272;15.220;2022-08-04T00:32:31;10.63;;;3.07;;
11058;SDS011;5582;59.272;15.220;2022-08-04T00:34:58;9.27;;;3.00;;
11058;SDS011;5582;59.272;15.220;2022-08-04T00:37:25;8.53;;;2.87;;
11058;SDS011;5582;59.272;15.220;2022-08-04T00:39:55;4.67;;;2.40;;
11058;SDS011;5582;59.272;15.220;2022-08-04T00:42:36;8.47;;;2.50;;
11058;SDS011;5582;59.272;15.220;2022-08-04T00:45:40;6.00;;;2.10;;
11058;SDS011;5582;59.272;15.220;2022-08-04T01:01:54;5.83;;;2.40;;
11058;SDS011;5582;59.272;15.220;2022-08-04T01:17:58;7.27;;;2.43;;
11058;SDS011;5582;59.272;15.220;2022-08-04T01:20:32;9.30;;;2.20;;
11058;SDS011;5582;59.272;15.220;2022-08-04T01:23:31;4.10;;;2.37;;
11058;SDS011;5582;59.272;15.220;2022-08-04T01:29:37;6.90;;;2.40;;
11058;SDS011;5582;59.272;15.220;2022-08-04T01:35:23;4.53;;;2.23;;
11058;SDS011;5582;59.272;15.220;2022-08-04T01:38:00;7.17;;;2.43;;
11058;SDS011;5582;59.272;15.220;2022-08-04T01:41:06;6.17;;;2.83;;
11058;SDS011;5582;59.272;15.220;2022-08-04T01:43:42;5.83;;;2.43;;
11058;SDS011;5582;59.272;15.220;2022-08-04T01:46:14;6.40;;;2.57;;
11058;SDS011;5582;59.272;15.220;2022-08-04T01:48:43;4.10;;;2.13;;
11058;SDS011;5582;59.272;15.220;2022-08-04T01:51:10;10.60;;;2.73;;
11058;SDS011;5582;59.272;15.220;2022-08-04T01:53:36;5.50;;;2.50;;
11058;SDS011;5582;59.272;15.220;2022-08-04T01:56:05;5.47;;;2.53;;
11058;SDS011;5582;59.272;15.220;2022-08-04T01:58:33;6.17;;;2.77;;
11058;SDS011;5582;59.272;15.220;2022-08-04T02:01:07;6.77;;;2.67;;
11058;SDS011;5582;59.272;15.220;2022-08-04T02:03:35;7.30;;;3.30;;
11058;SDS011;5582;59.272;15.220;2022-08-04T02:06:48;12.57;;;3.57;;
11058;SDS011;5582;59.272;15.220;2022-08-04T02:12:04;5.73;;;3.33;;
11058;SDS011;5582;59.272;15.220;2022-08-04T02:14:39;5.23;;;2.70;;
11058;SDS011;5582;59.272;15.220;2022-08-04T02:19:54;6.47;;;3.33;;
11058;SDS011;5582;59.272;15.220;2022-08-04T02:22:32;8.57;;;3.57;;
11058;SDS011;5582;59.272;15.220;2022-08-04T02:25:05;5.83;;;3.20;;
11058;SDS011;5582;59.272;15.220;2022-08-04T02:27:48;8.87;;;3.33;;
11058;SDS011;5582;59.272;15.220;2022-08-04T02:30:14;6.40;;;3.53;;
11058;SDS011;5582;59.272;15.220;2022-08-04T02:32:42;8.17;;;4.20;;
11058;SDS011;5582;59.272;15.220;2022-08-04T02:35:14;7.63;;;3.53;;
11058;SDS011;5582;59.272;15.220;2022-08-04T02:37:52;12.93;;;4.00;;
11058;SDS011;5582;59.272;15.220;2022-08-04T02:40:25;9.80;;;4.27;;
11058;SDS011;5582;59.272;15.220;2022-08-04T02:42:53;9.17;;;4.03;;
11058;SDS011;5582;59.272;15.220;2022-08-04T02:45:22;7.80;;;3.90;;
11058;SDS011;5582;59.272;15.220;2022-08-04T02:47:50;8.73;;;3.90;;
11058;SDS011;5582;59.272;15.220;2022-08-04T02:50:19;11.87;;;4.27;;
11058;SDS011;5582;59.272;15.220;2022-08-04T02:52:46;11.67;;;4.17;;
11058;SDS011;5582;59.272;15.220;2022-08-04T02:55:15;8.27;;;4.40;;
11058;SDS011;5582;59.272;15.220;2022-08-04T02:57:42;8.57;;;4.40;;
11058;SDS011;5582;59.272;15.220;2022-08-04T03:00:12;9.30;;;4.20;;
11058;SDS011;5582;59.272;15.220;2022-08-04T03:05:06;10.33;;;4.40;;
11058;SDS011;5582;59.272;15.220;2022-08-04T03:07:53;6.63;;;4.17;;
11058;SDS011;5582;59.272;15.220;2022-08-04T03:19:09;9.83;;;4.47;;
11058;SDS011;5582;59.272;15.220;2022-08-04T03:24:28;7.40;;;4.40;;
11058;SDS011;5582;59.272;15.220;2022-08-04T03:27:11;6.23;;;3.93;;
11058;SDS011;5582;59.272;15.220;2022-08-04T03:32:32;11.47;;;4.43;;
11058;SDS011;5582;59.272;15.220;2022-08-04T04:23:13;8.97;;;3.83;;
11058;SDS011;5582;59.272;15.220;2022-08-04T04:34:05;11.43;;;3.73;;
11058;SDS011;5582;59.272;15.220;2022-08-04T04:39:54;10.37;;;3.70;;
11058;SDS011;5582;59.272;15.220;2022-08-04T04:47:54;10.67;;;3.60;;
11058;SDS011;5582;59.272;15.220;2022-08-04T04:50:50;7.40;;;3.57;;
11058;SDS011;5582;59.272;15.220;2022-08-04T04:53:23;7.67;;;2.93;;
11058;SDS011;5582;59.272;15.220;2022-08-04T04:56:02;12.90;;;3.60;;
11058;SDS011;5582;59.272;15.220;2022-08-04T04:58:38;10.00;;;3.30;;
11058;SDS011;5582;59.272;15.220;2022-08-04T05:01:24;10.00;;;3.30;;
11058;SDS011;5582;59.272;15.220;2022-08-04T05:06:50;8.00;;;3.30;;
11058;SDS011;5582;59.272;15.220;2022-08-04T05:12:25;8.83;;;2.93;;
11058;SDS011;5582;59.272;15.220;2022-08-04T05:15:18;10.20;;;2.87;;
11058;SDS011;5582;59.272;15.220;2022-08-04T05:17:49;10.73;;;2.70;;
11058;SDS011;5582;59.272;15.220;2022-08-04T05:20:22;8.83;;;3.00;;
11058;SDS011;5582;59.272;15.220;2022-08-04T05:22:55;13.73;;;3.07;;
11058;SDS011;5582;59.272;15.220;2022-08-04T05:25:38;8.30;;;3.27;;
11058;SDS011;5582;59.272;15.220;2022-08-04T05:28:09;9.40;;;2.90;;
11058;SDS011;5582;59.272;15.220;2022-08-04T05:30:42;9.90;;;2.77;;
11058;SDS011;5582;59.272;15.220;2022-08-04T05:33:14;12.60;;;3.17;;
11058;SDS011;5582;59.272;15.220;2022-08-04T05:35:48;9.37;;;3.10;;
11058;SDS011;5582;59.272;15.220;2022-08-04T05:38:17;6.43;;;2.90;;
11058;SDS011;5582;59.272;15.220;2022-08-04T05:40:46;9.10;;;3.30;;
11058;SDS011;5582;59.272;15.220;2022-08-04T05:43:13;9.33;;;3.00;;
11058;SDS011;5582;59.272;15.220;2022-08-04T05:45:39;9.30;;;2.60;;
11058;SDS011;5582;59.272;15.220;2022-08-04T05:48:06;8.30;;;2.77;;
11058;SDS011;5582;59.272;15.220;2022-08-04T05:50:33;8.40;;;2.93;;
11058;SDS011;5582;59.272;15.220;2022-08-04T05:53:00;7.13;;;2.90;;
11058;SDS011;5582;59.272;15.220;2022-08-04T05:55:27;10.13;;;3.00;;
11058;SDS011;5582;59.272;15.220;2022-08-04T05:57:54;9.30;;;2.93;;
11058;SDS011;5582;59.272;15.220;2022-08-04T06:00:21;7.73;;;2.53;;
11058;SDS011;5582;59.272;15.220;2022-08-04T06:02:49;7.57;;;2.60;;
11058;SDS011;5582;59.272;15.220;2022-08-04T06:05:17;9.80;;;3.00;;
11058;SDS011;5582;59.272;15.220;2022-08-04T06:07:44;9.67;;;2.90;;
11058;SDS011;5582;59.272;15.220;2022-08-04T06:10:10;7.70;;;2.30;;
11058;SDS011;5582;59.272;15.220;2022-08-04T06:13:10;7.83;;;2.50;;
11058;SDS011;5582;59.272;15.220;2022-08-04T06:15:31;9.80;;;2.40;;
11058;SDS011;5582;59.272;15.220;2022-08-04T06:18:00;9.30;;;2.27;;
11058;SDS011;5582;59.272;15.220;2022-08-04T06:20:29;7.43;;;2.50;;
11058;SDS011;5582;59.272;15.220;2022-08-04T06:22:59;7.03;;;2.43;;
11058;SDS011;5582;59.272;15.220;2022-08-04T06:25:30;6.53;;;2.33;;
11058;SDS011;5582;59.272;15.220;2022-08-04T06:27:58;6.87;;;2.50;;
11058;SDS011;5582;59.272;15.220;2022-08-04T06:30:26;7.40;;;2.53;;
11058;SDS011;5582;59.272;15.220;2022-08-04T06:32:54;9.33;;;2.53;;
11058;SDS011;5582;59.272;15.220;2022-08-04T06:35:22;7.10;;;2.40;;
11058;SDS011;5582;59.272;15.220;2022-08-04T06:37:49;8.77;;;2.90;;
11058;SDS011;5582;59.272;15.220;2022-08-04T06:40:17;10.23;;;2.67;;
11058;SDS011;5582;59.272;15.220;2022-08-04T06:42:44;2.93;;;1.80;;
11058;SDS011;5582;59.272;15.220;2022-08-04T06:45:12;5.97;;;2.17;;
11058;SDS011;5582;59.272;15.220;2022-08-04T06:47:39;9.53;;;2.50;;
11058;SDS011;5582;59.272;15.220;2022-08-04T06:50:07;9.80;;;2.27;;
11058;SDS011;5582;59.272;15.220;2022-08-04T06:52:34;7.07;;;2.30;;
11058;SDS011;5582;59.272;15.220;2022-08-04T06:55:00;7.17;;;2.20;;
11058;SDS011;5582;59.272;15.220;2022-08-04T06:57:27;5.77;;;2.10;;
11058;SDS011;5582;59.272;15.220;2022-08-04T07:00:01;5.73;;;1.83;;
11058;SDS011;5582;59.272;15.220;2022-08-04T07:02:40;8.60;;;2.37;;
11058;SDS011;5582;59.272;15.220;2022-08-04T07:05:11;4.67;;;2.03;;
11058;SDS011;5582;59.272;15.220;2022-08-04T07:07:39;7.70;;;1.90;;
11058;SDS011;5582;59.272;15.220;2022-08-04T07:10:05;6.87;;;2.13;;
11058;SDS011;5582;59.272;15.220;2022-08-04T07:12:32;4.77;;;2.07;;
11058;SDS011;5582;59.272;15.220;2022-08-04T07:14:58;7.37;;;2.10;;
11058;SDS011;5582;59.272;15.220;2022-08-04T07:17:25;6.67;;;2.17;;
11058;SDS011;5582;59.272;15.220;2022-08-04T07:19:52;7.97;;;3.20;;
11058;SDS011;5582;59.272;15.220;2022-08-04T07:22:18;6.23;;;1.83;;
11058;SDS011;5582;59.272;15.220;2022-08-04T07:24:45;8.87;;;2.40;;
11058;SDS011;5582;59.272;15.220;2022-08-04T07:27:10;6.57;;;2.13;;
11058;SDS011;5582;59.272;15.220;2022-08-04T07:29:36;8.00;;;2.20;;
11058;SDS011;5582;59.272;15.220;2022-08-04T07:32:04;10.67;;;2.33;;
11058;SDS011;5582;59.272;15.220;2022-08-04T07:34:30;8.40;;;2.07;;
11058;SDS011;5582;59.272;15.220;2022-08-04T07:36:57;7.10;;;1.80;;
11058;SDS011;5582;59.272;15.220;2022-08-04T07:39:25;3.67;;;1.70;;
11058;SDS011;5582;59.272;15.220;2022-08-04T07:41:53;6.93;;;1.93;;
11058;SDS011;5582;59.272;15.220;2022-08-04T07:44:19;6.50;;;1.60;;
11058;SDS011;5582;59.272;15.220;2022-08-04T07:46:45;3.80;;;1.60;;
11058;SDS011;5582;59.272;15.220;2022-08-04T07:49:11;5.23;;;1.83;;
11058;SDS011;5582;59.272;15.220;2022-08-04T07:51:38;6.57;;;1.50;;
11058;SDS011;5582;59.272;15.220;2022-08-04T07:54:04;4.20;;;1.57;;
11058;SDS011;5582;59.272;15.220;2022-08-04T07:56:35;3.80;;;1.50;;
11058;SDS011;5582;59.272;15.220;2022-08-04T07:59:02;4.27;;;1.43;;
11058;SDS011;5582;59.272;15.220;2022-08-04T08:01:28;4.40;;;1.27;;
11058;SDS011;5582;59.272;15.220;2022-08-04T08:03:54;6.87;;;1.40;;
11058;SDS011;5582;59.272;15.220;2022-08-04T08:06:22;5.50;;;1.90;;
11058;SDS011;5582;59.272;15.220;2022-08-04T08:08:48;6.80;;;1.60;;
11058;SDS011;5582;59.272;15.220;2022-08-04T08:11:14;7.33;;;1.83;;
11058;SDS011;5582;59.272;15.220;2022-08-04T08:13:41;5.20;;;1.47;;
11058;SDS011;5582;59.272;15.220;2022-08-04T08:16:10;4.77;;;1.60;;
11058;SDS011;5582;59.272;15.220;2022-08-04T08:18:36;6.60;;;1.40;;
11058;SDS011;5582;59.272;15.220;2022-08-04T08:21:02;5.37;;;1.40;;
11058;SDS011;5582;59.272;15.220;2022-08-04T08:23:29;5.20;;;1.50;;
11058;SDS011;5582;59.272;15.220;2022-08-04T08:25:56;8.30;;;1.50;;
11058;SDS011;5582;59.272;15.220;2022-08-04T08:28:23;3.77;;;1.37;;
11058;SDS011;5582;59.272;15.220;2022-08-04T08:30:49;3.67;;;1.30;;
11058;SDS011;5582;59.272;15.220;2022-08-04T08:33:15;4.37;;;1.60;;
11058;SDS011;5582;59.272;15.220;2022-08-04T08:58:11;5.17;;;1.53;;
11058;SDS011;5582;59.272;15.220;2022-08-04T09:12:11;1.97;;;0.90;;
11058;SDS011;5582;59.272;15.220;2022-08-04T09:14:48;2.60;;;0.90;;
11058;SDS011;5582;59.272;15.220;2022-08-04T09:17:22;2.23;;;0.80;;
11058;SDS011;5582;59.272;15.220;2022-08-04T09:19:57;3.43;;;1.20;;
11058;SDS011;5582;59.272;15.220;2022-08-04T09:25:19;2.23;;;0.90;;
11058;SDS011;5582;59.272;15.220;2022-08-04T09:27:53;3.23;;;1.07;;
11058;SDS011;5582;59.272;15.220;2022-08-04T09:30:20;2.37;;;0.67;;
11058;SDS011;5582;59.272;15.220;2022-08-04T09:37:56;4.33;;;1.10;;
11058;SDS011;5582;59.272;15.220;2022-08-04T09:43:30;3.17;;;1.10;;
11058;SDS011;5582;59.272;15.220;2022-08-04T09:46:12;4.17;;;1.00;;
11058;SDS011;5582;59.272;15.220;2022-08-04T09:48:47;1.93;;;0.60;;
11058;SDS011;5582;59.272;15.220;2022-08-04T09:54:20;4.97;;;1.20;;
11058;SDS011;5582;59.272;15.220;2022-08-04T10:00:03;3.20;;;0.90;;
11058;SDS011;5582;59.272;15.220;2022-08-04T10:02:33;2.20;;;0.90;;
11058;SDS011;5582;59.272;15.220;2022-08-04T10:05:02;4.63;;;1.27;;
11058;SDS011;5582;59.272;15.220;2022-08-04T10:19:11;5.50;;;1.10;;
11058;SDS011;5582;59.272;15.220;2022-08-04T10:22:00;2.73;;;1.20;;
11058;SDS011;5582;59.272;15.220;2022-08-04T10:27:43;7.60;;;1.60;;
11058;SDS011;5582;59.272;15.220;2022-08-04T10:30:12;3.77;;;1.30;;
11058;SDS011;5582;59.272;15.220;2022-08-04T10:35:18;9.03;;;1.70;;
11058;SDS011;5582;59.272;15.220;2022-08-04T10:38:09;8.17;;;2.03;;
11058;SDS011;5582;59.272;15.220;2022-08-04T10:40:47;5.20;;;1.50;;
11058;SDS011;5582;59.272;15.220;2022-08-04T10:46:01;3.70;;;1.10;;
11058;SDS011;5582;59.272;15.220;2022-08-04T10:51:18;3.10;;;1.17;;
11058;SDS011;5582;59.272;15.220;2022-08-04T10:54:10;5.80;;;1.30;;
11058;SDS011;5582;59.272;15.220;2022-08-04T10:56:48;5.13;;;1.40;;
11058;SDS011;5582;59.272;15.220;2022-08-04T11:07:36;4.00;;;1.40;;
11058;SDS011;5582;59.272;15.220;2022-08-04T11:10:05;4.80;;;1.20;;
11058;SDS011;5582;59.272;15.220;2022-08-04T11:12:33;2.57;;;1.27;;
11058;SDS011;5582;59.272;15.220;2022-08-04T11:15:08;6.97;;;1.23;;
11058;SDS011;5582;59.272;15.220;2022-08-04T11:17:39;4.03;;;1.20;;
11058;SDS011;5582;59.272;15.220;2022-08-04T11:22:32;3.77;;;1.37;;
11058;SDS011;5582;59.272;15.220;2022-08-04T11:32:33;4.27;;;1.20;;
11058;SDS011;5582;59.272;15.220;2022-08-04T11:35:06;2.73;;;1.20;;
11058;SDS011;5582;59.272;15.220;2022-08-04T11:37:53;3.43;;;1.20;;
11058;SDS011;5582;59.272;15.220;2022-08-04T11:41:02;3.97;;;1.33;;
11058;SDS011;5582;59.272;15.220;2022-08-04T11:43:26;2.67;;;1.17;;
11058;SDS011;5582;59.272;15.220;2022-08-04T11:46:02;2.43;;;1.10;;
11058;SDS011;5582;59.272;15.220;2022-08-04T11:48:40;5.97;;;1.73;;
11058;SDS011;5582;59.272;15.220;2022-08-04T11:51:11;2.20;;;1.23;;
11058;SDS011;5582;59.272;15.220;2022-08-04T11:53:38;2.93;;;1.20;;
11058;SDS011;5582;59.272;15.220;2022-08-04T11:56:06;2.13;;;1.20;;
11058;SDS011;5582;59.272;15.220;2022-08-04T11:58:36;3.60;;;1.30;;
11058;SDS011;5582;59.272;15.220;2022-08-04T12:04:01;2.80;;;1.30;;
11058;SDS011;5582;59.272;15.220;2022-08-04T12:09:45;6.43;;;1.70;;
11058;SDS011;5582;59.272;15.220;2022-08-04T12:17:55;4.57;;;1.20;;
11058;SDS011;5582;59.272;15.220;2022-08-04T12:20:23;3.83;;;1.43;;
11058;SDS011;5582;59.272;15.220;2022-08-04T12:22:51;5.20;;;1.60;;
11058;SDS011;5582;59.272;15.220;2022-08-04T12:25:22;4.53;;;1.50;;
11058;SDS011;5582;59.272;15.220;2022-08-04T12:28:11;5.43;;;1.30;;
11058;SDS011;5582;59.272;15.220;2022-08-04T12:31:01;3.90;;;1.50;;
11058;SDS011;5582;59.272;15.220;2022-08-04T12:33:40;4.63;;;1.47;;
11058;SDS011;5582;59.272;15.220;2022-08-04T12:39:05;2.53;;;1.40;;
11058;SDS011;5582;59.272;15.220;2022-08-04T12:41:42;3.45;;;1.20;;
11058;SDS011;5582;59.272;15.220;2022-08-04T12:44:21;3.83;;;1.50;;
11058;SDS011;5582;59.272;15.220;2022-08-04T12:46:46;4.30;;;1.50;;
11058;SDS011;5582;59.272;15.220;2022-08-04T12:49:13;5.15;;;1.48;;
11058;SDS011;5582;59.272;15.220;2022-08-04T12:51:43;2.25;;;1.30;;
11058;SDS011;5582;59.272;15.220;2022-08-04T12:54:10;2.95;;;1.40;;
11058;SDS011;5582;59.272;15.220;2022-08-04T12:56:37;2.38;;;1.35;;
11058;SDS011;5582;59.272;15.220;2022-08-04T12:59:07;4.70;;;1.40;;
11058;SDS011;5582;59.272;15.220;2022-08-04T13:01:35;2.13;;;1.20;;
11058;SDS011;5582;59.272;15.220;2022-08-04T13:04:14;1.90;;;1.10;;
11058;SDS011;5582;59.272;15.220;2022-08-04T13:06:43;3.63;;;1.30;;
11058;SDS011;5582;59.272;15.220;2022-08-04T13:09:17;3.40;;;1.25;;
11058;SDS011;5582;59.272;15.220;2022-08-04T13:11:58;2.10;;;1.13;;
11058;SDS011;5582;59.272;15.220;2022-08-04T13:14:30;2.87;;;1.27;;
11058;SDS011;5582;59.272;15.220;2022-08-04T13:17:00;3.53;;;1.53;;
11058;SDS011;5582;59.272;15.220;2022-08-04T13:19:26;5.40;;;1.40;;
11058;SDS011;5582;59.272;15.220;2022-08-04T13:21:53;3.03;;;1.20;;
11058;SDS011;5582;59.272;15.220;2022-08-04T13:24:21;2.30;;;1.47;;
11058;SDS011;5582;59.272;15.220;2022-08-04T13:26:49;2.53;;;1.35;;
11058;SDS011;5582;59.272;15.220;2022-08-04T13:29:24;3.08;;;1.10;;
11058;SDS011;5582;59.272;15.220;2022-08-04T13:31:55;2.42;;;1.17;;
11058;SDS011;5582;59.272;15.220;2022-08-04T13:34:22;2.33;;;0.98;;
11058;SDS011;5582;59.272;15.220;2022-08-04T13:36:48;3.20;;;1.10;;
11058;SDS011;5582;59.272;15.220;2022-08-04T13:39:19;1.45;;;0.95;;
11058;SDS011;5582;59.272;15.220;2022-08-04T13:41:55;5.00;;;1.00;;
11058;SDS011;5582;59.272;15.220;2022-08-04T13:44:26;3.88;;;1.13;;
11058;SDS011;5582;59.272;15.220;2022-08-04T13:47:05;4.45;;;0.90;;
11058;SDS011;5582;59.272;15.220;2022-08-04T13:49:38;9.35;;;1.40;;
11058;SDS011;5582;59.272;15.220;2022-08-04T13:52:04;1.95;;;1.00;;
11058;SDS011;5582;59.272;15.220;2022-08-04T13:54:40;1.45;;;0.93;;
11058;SDS011;5582;59.272;15.220;2022-08-04T13:59:52;1.50;;;0.98;;
11058;SDS011;5582;59.272;15.220;2022-08-04T14:02:24;2.05;;;1.00;;
11058;SDS011;5582;59.272;15.220;2022-08-04T14:04:56;3.20;;;0.80;;
11058;SDS011;5582;59.272;15.220;2022-08-04T14:07:32;1.45;;;1.08;;
11058;SDS011;5582;59.272;15.220;2022-08-04T14:10:09;2.80;;;0.65;;
11058;SDS011;5582;59.272;15.220;2022-08-04T14:12:42;1.85;;;0.90;;
11058;SDS011;5582;59.272;15.220;2022-08-04T14:21:00;1.83;;;0.98;;
11058;SDS011;5582;59.272;15.220;2022-08-04T14:26:13;1.40;;;0.85;;
11058;SDS011;5582;59.272;15.220;2022-08-04T14:28:39;1.77;;;0.90;;
11058;SDS011;5582;59.272;15.220;2022-08-04T14:31:08;4.60;;;1.00;;
11058;SDS011;5582;59.272;15.220;2022-08-04T14:33:36;0.93;;;0.80;;
11058;SDS011;5582;59.272;15.220;2022-08-04T14:36:03;1.25;;;0.90;;
11058;SDS011;5582;59.272;15.220;2022-08-04T14:41:07;1.70;;;0.77;;
11058;SDS011;5582;59.272;15.220;2022-08-04T14:43:39;3.38;;;0.73;;
11058;SDS011;5582;59.272;15.220;2022-08-04T14:46:07;2.00;;;1.20;;
11058;SDS011;5582;59.272;15.220;2022-08-04T14:48:34;1.35;;;0.98;;
11058;SDS011;5582;59.272;15.220;2022-08-04T14:51:00;5.35;;;1.15;;
11058;SDS011;5582;59.272;15.220;2022-08-04T14:53:25;1.83;;;0.70;;
11058;SDS011;5582;59.272;15.220;2022-08-04T14:55:57;2.20;;;0.90;;
11058;SDS011;5582;59.272;15.220;2022-08-04T14:58:25;1.80;;;1.00;;
11058;SDS011;5582;59.272;15.220;2022-08-04T15:00:52;2.03;;;0.90;;
11058;SDS011;5582;59.272;15.220;2022-08-04T15:03:20;0.93;;;0.70;;
11058;SDS011;5582;59.272;15.220;2022-08-04T15:05:47;1.65;;;0.95;;
11058;SDS011;5582;59.272;15.220;2022-08-04T15:08:13;3.00;;;1.17;;
11058;SDS011;5582;59.272;15.220;2022-08-04T15:10:40;2.38;;;0.90;;
11058;SDS011;5582;59.272;15.220;2022-08-04T15:13:08;4.32;;;1.10;;
11058;SDS011;5582;59.272;15.220;2022-08-04T15:15:37;2.42;;;0.80;;
11058;SDS011;5582;59.272;15.220;2022-08-04T15:18:06;2.03;;;1.25;;
11058;SDS011;5582;59.272;15.220;2022-08-04T15:20:32;3.88;;;1.00;;
11058;SDS011;5582;59.272;15.220;2022-08-04T15:23:00;1.63;;;1.20;;
11058;SDS011;5582;59.272;15.220;2022-08-04T15:25:36;2.22;;;1.05;;
11058;SDS011;5582;59.272;15.220;2022-08-04T15:28:11;2.13;;;1.13;;
11058;SDS011;5582;59.272;15.220;2022-08-04T15:30:43;5.53;;;1.20;;
11058;SDS011;5582;59.272;15.220;2022-08-04T15:33:11;4.20;;;1.90;;
11058;SDS011;5582;59.272;15.220;2022-08-04T15:35:42;2.63;;;1.87;;
11058;SDS011;5582;59.272;15.220;2022-08-04T15:38:15;2.57;;;1.50;;
11058;SDS011;5582;59.272;15.220;2022-08-04T15:46:14;4.97;;;1.20;;
11058;SDS011;5582;59.272;15.220;2022-08-04T15:48:46;3.37;;;1.10;;
11058;SDS011;5582;59.272;15.220;2022-08-04T15:51:12;3.17;;;1.27;;
11058;SDS011;5582;59.272;15.220;2022-08-04T15:58:52;2.27;;;1.07;;
11058;SDS011;5582;59.272;15.220;2022-08-04T16:01:21;6.20;;;1.10;;
11058;SDS011;5582;59.272;15.220;2022-08-04T16:03:47;2.00;;;1.17;;
11058;SDS011;5582;59.272;15.220;2022-08-04T16:19:06;6.10;;;1.90;;
11058;SDS011;5582;59.272;15.220;2022-08-04T16:21:33;4.37;;;1.20;;
11058;SDS011;5582;59.272;15.220;2022-08-04T16:24:20;3.83;;;1.43;;
11058;SDS011;5582;59.272;15.220;2022-08-04T16:27:05;4.33;;;1.40;;
11058;SDS011;5582;59.272;15.220;2022-08-04T16:32:09;4.23;;;1.07;;
11058;SDS011;5582;59.272;15.220;2022-08-04T16:37:05;2.13;;;1.20;;
11058;SDS011;5582;59.272;15.220;2022-08-04T16:39:32;1.43;;;1.10;;
11058;SDS011;5582;59.272;15.220;2022-08-04T16:41:59;2.40;;;1.10;;
11058;SDS011;5582;59.272;15.220;2022-08-04T16:44:44;2.23;;;1.27;;
11058;SDS011;5582;59.272;15.220;2022-08-04T16:50:12;2.10;;;1.10;;
11058;SDS011;5582;59.272;15.220;2022-08-04T16:55:14;2.00;;;1.13;;
11058;SDS011;5582;59.272;15.220;2022-08-04T16:57:46;3.00;;;1.20;;
11058;SDS011;5582;59.272;15.220;2022-08-04T17:00:15;1.57;;;1.03;;
11058;SDS011;5582;59.272;15.220;2022-08-04T17:02:42;7.00;;;1.17;;
11058;SDS011;5582;59.272;15.220;2022-08-04T17:05:31;1.53;;;0.93;;
11058;SDS011;5582;59.272;15.220;2022-08-04T17:07:56;3.77;;;1.53;;
11058;SDS011;5582;59.272;15.220;2022-08-04T17:10:33;2.53;;;1.07;;
11058;SDS011;5582;59.272;15.220;2022-08-04T17:15:49;2.20;;;0.97;;
11058;SDS011;5582;59.272;15.220;2022-08-04T17:18:16;1.17;;;0.90;;
11058;SDS011;5582;59.272;15.220;2022-08-04T17:20:48;2.73;;;1.40;;
11058;SDS011;5582;59.272;15.220;2022-08-04T17:25:57;1.90;;;1.20;;
11058;SDS011;5582;59.272;15.220;2022-08-04T17:28:26;104.63;;;6.90;;
11058;SDS011;5582;59.272;15.220;2022-08-04T17:30:53;12.70;;;3.00;;
11058;SDS011;5582;59.272;15.220;2022-08-04T17:33:21;6.27;;;2.23;;
11058;SDS011;5582;59.272;15.220;2022-08-04T17:35:48;6.43;;;1.53;;
11058;SDS011;5582;59.272;15.220;2022-08-04T17:38:14;5.13;;;1.30;;
11058;SDS011;5582;59.272;15.220;2022-08-04T17:40:50;3.03;;;1.30;;
11058;SDS011;5582;59.272;15.220;2022-08-04T17:43:21;4.30;;;2.00;;
11058;SDS011;5582;59.272;15.220;2022-08-04T17:46:14;5.43;;;2.17;;
11058;SDS011;5582;59.272;15.220;2022-08-04T17:48:40;3.13;;;1.83;;
11058;SDS011;5582;59.272;15.220;2022-08-04T17:51:15;4.13;;;1.93;;
11058;SDS011;5582;59.272;15.220;2022-08-04T17:53:42;3.50;;;1.77;;
11058;SDS011;5582;59.272;15.220;2022-08-04T18:06:50;5.37;;;2.20;;
11058;SDS011;5582;59.272;15.220;2022-08-04T18:09:24;5.00;;;1.70;;
11058;SDS011;5582;59.272;15.220;2022-08-04T18:12:10;3.90;;;1.83;;
11058;SDS011;5582;59.272;15.220;2022-08-04T18:17:04;5.00;;;1.70;;
11058;SDS011;5582;59.272;15.220;2022-08-04T18:19:31;2.80;;;1.90;;
11058;SDS011;5582;59.272;15.220;2022-08-04T18:21:56;3.70;;;1.70;;
11058;SDS011;5582;59.272;15.220;2022-08-04T18:24:22;3.70;;;1.60;;
11058;SDS011;5582;59.272;15.220;2022-08-04T18:26:48;3.27;;;1.70;;
11058;SDS011;5582;59.272;15.220;2022-08-04T18:29:14;4.00;;;1.83;;
11058;SDS011;5582;59.272;15.220;2022-08-04T18:31:39;4.37;;;2.10;;
11058;SDS011;5582;59.272;15.220;2022-08-04T18:34:05;4.30;;;1.70;;
11058;SDS011;5582;59.272;15.220;2022-08-04T18:36:31;3.83;;;1.47;;
11058;SDS011;5582;59.272;15.220;2022-08-04T18:38:59;2.83;;;1.30;;
11058;SDS011;5582;59.272;15.220;2022-08-04T18:41:26;1.50;;;1.40;;
11058;SDS011;5582;59.272;15.220;2022-08-04T18:43:52;2.67;;;1.27;;
11058;SDS011;5582;59.272;15.220;2022-08-04T18:46:21;3.00;;;1.30;;
11058;SDS011;5582;59.272;15.220;2022-08-04T18:48:50;5.03;;;1.40;;
11058;SDS011;5582;59.272;15.220;2022-08-04T18:51:16;3.07;;;1.20;;
11058;SDS011;5582;59.272;15.220;2022-08-04T18:53:44;4.47;;;1.53;;
11058;SDS011;5582;59.272;15.220;2022-08-04T18:56:11;2.67;;;1.33;;
11058;SDS011;5582;59.272;15.220;2022-08-04T18:58:37;6.60;;;2.70;;
11058;SDS011;5582;59.272;15.220;2022-08-04T19:01:02;5.50;;;1.70;;
11058;SDS011;5582;59.272;15.220;2022-08-04T19:03:28;4.63;;;2.10;;
11058;SDS011;5582;59.272;15.220;2022-08-04T19:05:54;5.73;;;1.80;;
11058;SDS011;5582;59.272;15.220;2022-08-04T19:08:20;4.40;;;1.47;;
11058;SDS011;5582;59.272;15.220;2022-08-04T19:10:45;5.20;;;1.60;;
11058;SDS011;5582;59.272;15.220;2022-08-04T19:13:11;2.20;;;1.30;;
11058;SDS011;5582;59.272;15.220;2022-08-04T19:15:36;6.40;;;1.50;;
11058;SDS011;5582;59.272;15.220;2022-08-04T19:18:02;2.63;;;1.23;;
11058;SDS011;5582;59.272;15.220;2022-08-04T19:20:28;1.90;;;1.10;;
11058;SDS011;5582;59.272;15.220;2022-08-04T19:22:54;3.37;;;0.90;;
11058;SDS011;5582;59.272;15.220;2022-08-04T19:25:20;3.27;;;0.97;;
11058;SDS011;5582;59.272;15.220;2022-08-04T19:27:45;1.90;;;0.83;;
11058;SDS011;5582;59.272;15.220;2022-08-04T19:30:11;3.30;;;1.20;;
11058;SDS011;5582;59.272;15.220;2022-08-04T19:32:37;1.63;;;0.80;;
11058;SDS011;5582;59.272;15.220;2022-08-04T19:35:03;1.90;;;0.80;;
11058;SDS011;5582;59.272;15.220;2022-08-04T19:37:29;2.77;;;1.03;;
11058;SDS011;5582;59.272;15.220;2022-08-04T19:39:56;1.57;;;0.80;;
11058;SDS011;5582;59.272;15.220;2022-08-04T19:42:22;2.27;;;0.97;;
11058;SDS011;5582;59.272;15.220;2022-08-04T19:44:47;3.93;;;1.10;;
11058;SDS011;5582;59.272;15.220;2022-08-04T19:47:13;3.20;;;1.50;;
11058;SDS011;5582;59.272;15.220;2022-08-04T19:49:39;2.67;;;1.30;;
11058;SDS011;5582;59.272;15.220;2022-08-04T19:52:04;1.03;;;0.70;;
11058;SDS011;5582;59.272;15.220;2022-08-04T19:54:31;2.70;;;0.80;;
11058;SDS011;5582;59.272;15.220;2022-08-04T19:56:57;3.13;;;0.90;;
11058;SDS011;5582;59.272;15.220;2022-08-04T19:59:23;2.50;;;0.87;;
11058;SDS011;5582;59.272;15.220;2022-08-04T20:01:48;3.00;;;0.73;;
11058;SDS011;5582;59.272;15.220;2022-08-04T20:04:14;2.33;;;1.00;;
11058;SDS011;5582;59.272;15.220;2022-08-04T20:06:40;1.40;;;0.73;;
11058;SDS011;5582;59.272;15.220;2022-08-04T20:09:06;0.93;;;0.63;;